sensor_id;sensor_type;location;lat;lon;timestamp;pressure;altitude;pressure_sealevel;temperature;humidity
61109;BME280;46995;55.740;37.402;2023-05-02T00:00:58;100009.41;;;2.80;78.27
61109;BME280;46995;55.740;37.402;2023-05-02T00:03:26;100008.56;;;2.79;78.41
61109;BME280;46995;55.740;37.402;2023-05-02T00:05:52;100018.00;;;2.82;78.19
61109;BME280;46995;55.740;37.402;2023-05-02T00:08:18;100023.34;;;2.79;78.17
61109;BME280;46995;55.740;37.402;2023-05-02T00:10:44;100018.28;;;2.76;77.89
61109;BME280;46995;55.740;37.402;2023-05-02T00:13:10;100023.50;;;2.76;78.34
61109;BME280;46995;55.740;37.402;2023-05-02T00:15:35;100027.94;;;2.74;78.36
61109;BME280;46995;55.740;37.402;2023-05-02T00:18:01;100032.41;;;2.72;78.05
61109;BME280;46995;55.740;37.402;2023-05-02T00:20:28;100035.06;;;2.70;78.07
61109;BME280;46995;55.740;37.402;2023-05-02T00:22:55;100034.38;;;2.67;78.04
61109;BME280;46995;55.740;37.402;2023-05-02T00:25:21;100023.59;;;2.55;78.11
61109;BME280;46995;55.740;37.402;2023-05-02T00:27:47;100029.56;;;2.58;79.01
61109;BME280;46995;55.740;37.402;2023-05-02T00:30:15;100045.78;;;2.64;78.75
61109;BME280;46995;55.740;37.402;2023-05-02T00:32:41;100038.59;;;2.50;78.41
61109;BME280;46995;55.740;37.402;2023-05-02T00:35:07;100040.25;;;2.51;78.04
61109;BME280;46995;55.740;37.402;2023-05-02T00:37:33;100054.22;;;2.50;78.51
61109;BME280;46995;55.740;37.402;2023-05-02T00:39:59;100038.13;;;2.41;78.85
61109;BME280;46995;55.740;37.402;2023-05-02T00:42:24;100048.38;;;2.45;78.48
61109;BME280;46995;55.740;37.402;2023-05-02T00:44:50;100054.50;;;2.44;78.54
61109;BME280;46995;55.740;37.402;2023-05-02T00:47:16;100059.81;;;2.41;78.59
61109;BME280;46995;55.740;37.402;2023-05-02T00:49:42;100063.44;;;2.39;78.69
61109;BME280;46995;55.740;37.402;2023-05-02T00:52:08;100049.97;;;2.29;78.89
61109;BME280;46995;55.740;37.402;2023-05-02T00:54:36;100060.13;;;2.35;78.60
61109;BME280;46995;55.740;37.402;2023-05-02T00:57:02;100067.16;;;2.33;78.80
61109;BME280;46995;55.740;37.402;2023-05-02T00:59:28;100062.22;;;2.27;78.79
61109;BME280;46995;55.740;37.402;2023-05-02T01:02:31;100070.88;;;2.28;79.17
61109;BME280;46995;55.740;37.402;2023-05-02T01:05:12;100069.56;;;2.18;78.83
61109;BME280;46995;55.740;37.402;2023-05-02T01:07:54;100088.53;;;2.21;78.83
61109;BME280;46995;55.740;37.402;2023-05-02T01:13:08;100087.13;;;2.14;79.58
61109;BME280;46995;55.740;37.402;2023-05-02T01:15:38;100076.94;;;2.08;79.33
61109;BME280;46995;55.740;37.402;2023-05-02T01:18:08;100086.19;;;2.15;79.76
61109;BME280;46995;55.740;37.402;2023-05-02T01:20:37;100089.06;;;2.09;79.78
61109;BME280;46995;55.740;37.402;2023-05-02T01:23:27;100085.66;;;2.07;79.62
61109;BME280;46995;55.740;37.402;2023-05-02T01:26:18;100086.78;;;2.01;80.16
61109;BME280;46995;55.740;37.402;2023-05-02T01:31:27;100106.38;;;2.10;79.61
61109;BME280;46995;55.740;37.402;2023-05-02T01:33:55;100106.38;;;2.10;79.58
61109;BME280;46995;55.740;37.402;2023-05-02T01:36:25;100098.19;;;1.99;79.83
61109;BME280;46995;55.740;37.402;2023-05-02T01:38:54;100105.84;;;2.02;80.27
61109;BME280;46995;55.740;37.402;2023-05-02T01:41:24;100120.31;;;2.09;79.68
61109;BME280;46995;55.740;37.402;2023-05-02T01:43:50;100113.81;;;1.99;80.07
61109;BME280;46995;55.740;37.402;2023-05-02T01:46:19;100117.19;;;2.01;79.97
61109;BME280;46995;55.740;37.402;2023-05-02T01:48:46;100131.84;;;2.03;79.92
61109;BME280;46995;55.740;37.402;2023-05-02T01:51:14;100129.44;;;1.99;79.62
61109;BME280;46995;55.740;37.402;2023-05-02T01:53:45;100133.78;;;1.98;79.68
61109;BME280;46995;55.740;37.402;2023-05-02T01:56:16;100130.66;;;1.90;79.50
61109;BME280;46995;55.740;37.402;2023-05-02T01:58:43;100112.00;;;1.79;80.03
61109;BME280;46995;55.740;37.402;2023-05-02T02:01:09;100145.06;;;1.99;79.80
61109;BME280;46995;55.740;37.402;2023-05-02T02:03:36;100145.06;;;1.99;79.95
61109;BME280;46995;55.740;37.402;2023-05-02T02:06:02;100146.16;;;1.93;80.03
61109;BME280;46995;55.740;37.402;2023-05-02T02:08:29;100157.16;;;2.00;80.30
61109;BME280;46995;55.740;37.402;2023-05-02T02:11:03;100156.31;;;1.99;80.04
61109;BME280;46995;55.740;37.402;2023-05-02T02:13:38;100159.72;;;2.01;80.41
61109;BME280;46995;55.740;37.402;2023-05-02T02:16:05;100149.53;;;1.95;80.00
61109;BME280;46995;55.740;37.402;2023-05-02T02:18:36;100162.38;;;2.00;79.96
61109;BME280;46995;55.740;37.402;2023-05-02T02:21:05;100154.03;;;1.92;80.00
61109;BME280;46995;55.740;37.402;2023-05-02T02:23:32;100154.78;;;1.94;79.81
61109;BME280;46995;55.740;37.402;2023-05-02T02:26:01;100161.50;;;1.99;79.83
61109;BME280;46995;55.740;37.402;2023-05-02T02:28:27;100173.53;;;2.03;80.12
61109;BME280;46995;55.740;37.402;2023-05-02T02:30:53;100172.03;;;1.98;79.76
61109;BME280;46995;55.740;37.402;2023-05-02T02:33:21;100184.41;;;2.13;80.17
61109;BME280;46995;55.740;37.402;2023-05-02T02:35:54;100183.50;;;2.14;80.07
61109;BME280;46995;55.740;37.402;2023-05-02T02:38:32;100183.22;;;2.20;80.04
61109;BME280;46995;55.740;37.402;2023-05-02T02:41:08;100176.22;;;2.22;79.61
61109;BME280;46995;55.740;37.402;2023-05-02T02:43:43;100189.84;;;2.29;80.12
61109;BME280;46995;55.740;37.402;2023-05-02T02:49:37;100190.34;;;2.37;80.13
61109;BME280;46995;55.740;37.402;2023-05-02T02:52:35;100188.47;;;2.40;80.01
61109;BME280;46995;55.740;37.402;2023-05-02T02:55:11;100184.81;;;2.44;80.16
61109;BME280;46995;55.740;37.402;2023-05-02T02:57:54;100191.19;;;2.58;80.18
61109;BME280;46995;55.740;37.402;2023-05-02T03:00:24;100189.19;;;2.64;79.83
61109;BME280;46995;55.740;37.402;2023-05-02T03:02:53;100196.69;;;2.72;79.51
61109;BME280;46995;55.740;37.402;2023-05-02T03:05:20;100187.38;;;2.66;79.38
61109;BME280;46995;55.740;37.402;2023-05-02T03:07:47;100198.88;;;2.81;79.71
61109;BME280;46995;55.740;37.402;2023-05-02T03:10:12;100207.34;;;2.86;79.10
61109;BME280;46995;55.740;37.402;2023-05-02T03:12:39;100198.63;;;2.87;78.95
61109;BME280;46995;55.740;37.402;2023-05-02T03:15:56;100211.19;;;2.97;78.94
61109;BME280;46995;55.740;37.402;2023-05-02T03:18:29;100207.63;;;2.98;78.60
61109;BME280;46995;55.740;37.402;2023-05-02T03:20:56;100203.16;;;3.02;78.55
61109;BME280;46995;55.740;37.402;2023-05-02T03:23:22;100221.78;;;3.13;78.30
61109;BME280;46995;55.740;37.402;2023-05-02T03:25:51;100222.28;;;3.21;78.69
61109;BME280;46995;55.740;37.402;2023-05-02T03:28:21;100226.16;;;3.31;78.70
61109;BME280;46995;55.740;37.402;2023-05-02T03:30:48;100231.59;;;3.46;78.60
61109;BME280;46995;55.740;37.402;2023-05-02T03:33:14;100234.78;;;3.52;77.88
61109;BME280;46995;55.740;37.402;2023-05-02T03:35:42;100231.97;;;3.57;77.75
61109;BME280;46995;55.740;37.402;2023-05-02T03:38:10;100233.22;;;3.67;77.72
61109;BME280;46995;55.740;37.402;2023-05-02T03:40:36;100241.56;;;3.75;76.90
61109;BME280;46995;55.740;37.402;2023-05-02T03:43:03;100234.56;;;3.75;76.66
61109;BME280;46995;55.740;37.402;2023-05-02T03:45:31;100223.56;;;3.69;76.39
61109;BME280;46995;55.740;37.402;2023-05-02T03:47:58;100247.59;;;3.94;75.84
61109;BME280;46995;55.740;37.402;2023-05-02T03:50:24;100238.78;;;3.97;76.43
61109;BME280;46995;55.740;37.402;2023-05-02T03:52:51;100241.81;;;4.06;76.11
61109;BME280;46995;55.740;37.402;2023-05-02T03:55:24;100253.50;;;4.16;75.86
61109;BME280;46995;55.740;37.402;2023-05-02T03:57:50;100246.13;;;4.24;75.76
61109;BME280;46995;55.740;37.402;2023-05-02T04:00:16;100251.06;;;4.31;74.92
61109;BME280;46995;55.740;37.402;2023-05-02T04:02:49;100254.16;;;4.39;75.13
61109;BME280;46995;55.740;37.402;2023-05-02T04:05:22;100233.38;;;4.36;75.33
61109;BME280;46995;55.740;37.402;2023-05-02T04:07:49;100248.16;;;4.54;74.14
61109;BME280;46995;55.740;37.402;2023-05-02T04:10:16;100261.56;;;4.65;74.71
61109;BME280;46995;55.740;37.402;2023-05-02T04:12:49;100256.78;;;4.73;73.95
61109;BME280;46995;55.740;37.402;2023-05-02T04:15:16;100255.56;;;4.80;74.35
61109;BME280;46995;55.740;37.402;2023-05-02T04:17:44;100255.38;;;4.83;74.01
61109;BME280;46995;55.740;37.402;2023-05-02T04:20:12;100262.38;;;5.00;73.81
61109;BME280;46995;55.740;37.402;2023-05-02T04:22:42;100247.53;;;5.00;73.44
61109;BME280;46995;55.740;37.402;2023-05-02T04:25:08;100274.59;;;5.17;72.84
61109;BME280;46995;55.740;37.402;2023-05-02T04:27:39;100268.28;;;5.21;73.29
61109;BME280;46995;55.740;37.402;2023-05-02T04:30:09;100268.63;;;5.30;72.55
61109;BME280;46995;55.740;37.402;2023-05-02T04:32:41;100269.34;;;5.34;71.96
61109;BME280;46995;55.740;37.402;2023-05-02T04:35:08;100274.34;;;5.54;72.08
61109;BME280;46995;55.740;37.402;2023-05-02T04:37:35;100283.56;;;5.61;71.58
61109;BME280;46995;55.740;37.402;2023-05-02T04:40:02;100290.94;;;5.70;71.81
61109;BME280;46995;55.740;37.402;2023-05-02T04:42:30;100261.53;;;5.65;71.35
61109;BME280;46995;55.740;37.402;2023-05-02T04:45:17;100279.63;;;5.85;71.09
61109;BME280;46995;55.740;37.402;2023-05-02T04:47:46;100291.00;;;6.02;70.68
61109;BME280;46995;55.740;37.402;2023-05-02T04:50:13;100274.22;;;6.04;70.57
61109;BME280;46995;55.740;37.402;2023-05-02T04:52:38;100294.09;;;6.24;69.75
61109;BME280;46995;55.740;37.402;2023-05-02T04:55:05;100303.31;;;6.31;69.61
61109;BME280;46995;55.740;37.402;2023-05-02T04:57:31;100287.59;;;6.31;69.41
61109;BME280;46995;55.740;37.402;2023-05-02T04:59:59;100297.38;;;6.43;69.48
61109;BME280;46995;55.740;37.402;2023-05-02T05:02:27;100302.94;;;6.53;69.42
61109;BME280;46995;55.740;37.402;2023-05-02T05:04:55;100293.53;;;6.64;69.40
61109;BME280;46995;55.740;37.402;2023-05-02T05:07:20;100289.59;;;6.71;68.66
61109;BME280;46995;55.740;37.402;2023-05-02T05:09:49;100294.41;;;6.79;68.33
61109;BME280;46995;55.740;37.402;2023-05-02T05:12:15;100284.50;;;6.84;67.54
61109;BME280;46995;55.740;37.402;2023-05-02T05:14:44;100287.16;;;6.98;66.41
61109;BME280;46995;55.740;37.402;2023-05-02T05:17:10;100275.63;;;7.01;66.78
61109;BME280;46995;55.740;37.402;2023-05-02T05:19:36;100273.28;;;7.10;66.35
61109;BME280;46995;55.740;37.402;2023-05-02T05:22:05;100289.16;;;7.23;65.71
61109;BME280;46995;55.740;37.402;2023-05-02T05:24:31;100269.81;;;7.24;65.96
61109;BME280;46995;55.740;37.402;2023-05-02T05:26:58;100299.88;;;7.48;65.95
61109;BME280;46995;55.740;37.402;2023-05-02T05:29:25;100272.66;;;7.35;65.67
61109;BME280;46995;55.740;37.402;2023-05-02T05:31:51;100251.06;;;7.30;65.05
61109;BME280;46995;55.740;37.402;2023-05-02T05:34:18;100293.47;;;7.66;65.03
61109;BME280;46995;55.740;37.402;2023-05-02T05:36:50;100264.38;;;7.55;62.75
61109;BME280;46995;55.740;37.402;2023-05-02T05:39:17;100299.69;;;7.80;62.45
61109;BME280;46995;55.740;37.402;2023-05-02T05:41:46;100275.06;;;7.81;62.03
61109;BME280;46995;55.740;37.402;2023-05-02T05:44:15;100310.34;;;8.05;62.62
61109;BME280;46995;55.740;37.402;2023-05-02T05:46:42;100281.72;;;8.00;61.60
61109;BME280;46995;55.740;37.402;2023-05-02T05:49:14;100285.69;;;8.06;60.46
61109;BME280;46995;55.740;37.402;2023-05-02T05:51:44;100268.69;;;8.12;60.97
61109;BME280;46995;55.740;37.402;2023-05-02T05:54:13;100290.56;;;8.26;61.12
61109;BME280;46995;55.740;37.402;2023-05-02T05:56:39;100255.25;;;8.16;61.40
61109;BME280;46995;55.740;37.402;2023-05-02T05:59:10;100285.44;;;8.37;60.35
61109;BME280;46995;55.740;37.402;2023-05-02T06:01:36;100292.66;;;8.48;59.21
61109;BME280;46995;55.740;37.402;2023-05-02T06:04:03;100300.28;;;8.65;58.52
61109;BME280;46995;55.740;37.402;2023-05-02T06:06:35;100301.16;;;8.66;58.63
61109;BME280;46995;55.740;37.402;2023-05-02T06:09:02;100296.50;;;8.69;57.79
61109;BME280;46995;55.740;37.402;2023-05-02T06:11:30;100277.97;;;8.58;57.30
61109;BME280;46995;55.740;37.402;2023-05-02T06:13:56;100298.88;;;8.74;56.99
61109;BME280;46995;55.740;37.402;2023-05-02T06:16:22;100301.28;;;8.77;57.46
61109;BME280;46995;55.740;37.402;2023-05-02T06:18:50;100289.06;;;8.76;56.46
61109;BME280;46995;55.740;37.402;2023-05-02T06:21:18;100289.59;;;8.81;55.73
61109;BME280;46995;55.740;37.402;2023-05-02T06:23:45;100300.34;;;8.90;54.56
61109;BME280;46995;55.740;37.402;2023-05-02T06:26:11;100295.94;;;8.91;54.56
61109;BME280;46995;55.740;37.402;2023-05-02T06:28:37;100300.59;;;9.00;53.40
61109;BME280;46995;55.740;37.402;2023-05-02T06:31:04;100303.78;;;9.05;52.14
61109;BME280;46995;55.740;37.402;2023-05-02T06:33:31;100279.72;;;8.97;51.64
61109;BME280;46995;55.740;37.402;2023-05-02T06:35:57;100291.13;;;9.10;50.85
61109;BME280;46995;55.740;37.402;2023-05-02T06:38:24;100305.91;;;9.25;51.50
61109;BME280;46995;55.740;37.402;2023-05-02T06:40:50;100301.34;;;9.27;51.48
61109;BME280;46995;55.740;37.402;2023-05-02T06:43:20;100305.88;;;9.38;51.47
61109;BME280;46995;55.740;37.402;2023-05-02T06:45:46;100289.75;;;9.30;50.87
61109;BME280;46995;55.740;37.402;2023-05-02T06:48:34;100271.09;;;9.20;47.92
61109;BME280;46995;55.740;37.402;2023-05-02T06:51:03;100246.97;;;9.14;49.00
61109;BME280;46995;55.740;37.402;2023-05-02T06:53:50;100310.75;;;9.57;46.79
61109;BME280;46995;55.740;37.402;2023-05-02T06:56:30;100280.59;;;9.35;47.69
61109;BME280;46995;55.740;37.402;2023-05-02T06:59:33;100293.66;;;9.50;48.13
61109;BME280;46995;55.740;37.402;2023-05-02T07:03:01;100313.25;;;9.71;48.74
61109;BME280;46995;55.740;37.402;2023-05-02T07:06:00;100252.53;;;9.34;46.93
61109;BME280;46995;55.740;37.402;2023-05-02T07:08:26;100283.41;;;9.58;46.64
61109;BME280;46995;55.740;37.402;2023-05-02T07:10:53;100279.81;;;9.59;46.25
61109;BME280;46995;55.740;37.402;2023-05-02T07:13:19;100297.66;;;9.68;46.27
61109;BME280;46995;55.740;37.402;2023-05-02T07:15:47;100309.66;;;9.72;46.34
61109;BME280;46995;55.740;37.402;2023-05-02T07:18:13;100301.34;;;9.78;46.29
61109;BME280;46995;55.740;37.402;2023-05-02T07:20:38;100299.31;;;9.82;45.39
61109;BME280;46995;55.740;37.402;2023-05-02T07:23:07;100292.25;;;9.82;44.88
61109;BME280;46995;55.740;37.402;2023-05-02T07:25:33;100301.28;;;9.91;45.28
61109;BME280;46995;55.740;37.402;2023-05-02T07:27:59;100314.22;;;10.06;44.38
61109;BME280;46995;55.740;37.402;2023-05-02T07:30:25;100302.84;;;10.06;44.46
61109;BME280;46995;55.740;37.402;2023-05-02T07:32:51;100306.53;;;10.16;43.90
61109;BME280;46995;55.740;37.402;2023-05-02T07:35:17;100287.16;;;10.15;43.75
61109;BME280;46995;55.740;37.402;2023-05-02T07:37:42;100304.59;;;10.31;44.19
61109;BME280;46995;55.740;37.402;2023-05-02T07:40:09;100308.69;;;10.35;43.77
61109;BME280;46995;55.740;37.402;2023-05-02T07:42:36;100303.19;;;10.38;43.29
61109;BME280;46995;55.740;37.402;2023-05-02T07:45:02;100295.91;;;10.41;43.79
61109;BME280;46995;55.740;37.402;2023-05-02T07:47:29;100277.88;;;10.35;43.56
61109;BME280;46995;55.740;37.402;2023-05-02T07:49:55;100298.47;;;10.54;44.59
61109;BME280;46995;55.740;37.402;2023-05-02T07:52:24;100286.00;;;10.56;42.18
61109;BME280;46995;55.740;37.402;2023-05-02T07:54:52;100291.78;;;10.61;44.92
61109;BME280;46995;55.740;37.402;2023-05-02T07:57:19;100273.06;;;10.64;44.08
61109;BME280;46995;55.740;37.402;2023-05-02T07:59:45;100287.88;;;10.78;43.22
61109;BME280;46995;55.740;37.402;2023-05-02T08:02:11;100258.06;;;10.65;42.13
61109;BME280;46995;55.740;37.402;2023-05-02T08:04:38;100282.00;;;10.85;42.20
61109;BME280;46995;55.740;37.402;2023-05-02T08:07:05;100288.28;;;10.95;42.49
61109;BME280;46995;55.740;37.402;2023-05-02T08:09:30;100279.66;;;10.93;42.39
61109;BME280;46995;55.740;37.402;2023-05-02T08:11:56;100289.72;;;10.99;42.08
61109;BME280;46995;55.740;37.402;2023-05-02T08:14:22;100292.63;;;10.96;40.96
61109;BME280;46995;55.740;37.402;2023-05-02T08:16:48;100283.97;;;10.94;41.22
61109;BME280;46995;55.740;37.402;2023-05-02T08:19:14;100286.88;;;11.02;40.62
61109;BME280;46995;55.740;37.402;2023-05-02T08:21:41;100282.94;;;11.08;41.05
61109;BME280;46995;55.740;37.402;2023-05-02T08:24:08;100273.41;;;11.05;40.72
61109;BME280;46995;55.740;37.402;2023-05-02T08:26:34;100266.22;;;11.08;42.41
61109;BME280;46995;55.740;37.402;2023-05-02T08:28:59;100271.91;;;11.14;42.08
61109;BME280;46995;55.740;37.402;2023-05-02T08:31:25;100255.19;;;11.14;41.87
61109;BME280;46995;55.740;37.402;2023-05-02T08:33:51;100223.09;;;11.07;40.30
61109;BME280;46995;55.740;37.402;2023-05-02T08:36:17;100232.84;;;11.18;40.22
61109;BME280;46995;55.740;37.402;2023-05-02T08:38:45;100280.69;;;11.48;39.57
61109;BME280;46995;55.740;37.402;2023-05-02T08:41:12;100260.47;;;11.36;39.12
61109;BME280;46995;55.740;37.402;2023-05-02T08:43:38;100257.59;;;11.28;40.43
61109;BME280;46995;55.740;37.402;2023-05-02T08:46:06;100272.38;;;11.41;39.74
61109;BME280;46995;55.740;37.402;2023-05-02T08:48:36;100272.16;;;11.44;38.60
61109;BME280;46995;55.740;37.402;2023-05-02T08:51:08;100277.81;;;11.51;37.96
61109;BME280;46995;55.740;37.402;2023-05-02T08:53:34;100244.84;;;11.33;38.69
61109;BME280;46995;55.740;37.402;2023-05-02T08:56:01;100216.22;;;11.16;38.51
61109;BME280;46995;55.740;37.402;2023-05-02T08:58:27;100270.69;;;11.52;39.58
61109;BME280;46995;55.740;37.402;2023-05-02T09:01:15;100259.53;;;11.48;37.50
61109;BME280;46995;55.740;37.402;2023-05-02T09:03:43;100229.56;;;11.25;38.07
61109;BME280;46995;55.740;37.402;2023-05-02T09:06:14;100270.13;;;11.59;39.18
61109;BME280;46995;55.740;37.402;2023-05-02T09:08:43;100253.28;;;11.60;38.71
61109;BME280;46995;55.740;37.402;2023-05-02T09:11:11;100254.03;;;11.73;37.69
61109;BME280;46995;55.740;37.402;2023-05-02T09:16:07;100237.06;;;11.76;37.75
61109;BME280;46995;55.740;37.402;2023-05-02T09:18:40;100246.06;;;11.84;38.15
61109;BME280;46995;55.740;37.402;2023-05-02T09:21:10;100242.22;;;11.88;37.78
61109;BME280;46995;55.740;37.402;2023-05-02T09:26:17;100241.97;;;11.92;37.61
61109;BME280;46995;55.740;37.402;2023-05-02T09:28:45;100233.78;;;11.95;38.64
61109;BME280;46995;55.740;37.402;2023-05-02T09:31:16;100236.03;;;12.10;39.22
61109;BME280;46995;55.740;37.402;2023-05-02T09:33:43;100234.69;;;12.16;38.78
61109;BME280;46995;55.740;37.402;2023-05-02T09:36:12;100232.41;;;12.22;39.06
61109;BME280;46995;55.740;37.402;2023-05-02T09:38:42;100233.44;;;12.31;39.08
61109;BME280;46995;55.740;37.402;2023-05-02T09:41:09;100237.63;;;12.45;38.32
61109;BME280;46995;55.740;37.402;2023-05-02T09:43:36;100223.31;;;12.36;37.60
61109;BME280;46995;55.740;37.402;2023-05-02T09:46:11;100232.16;;;12.46;38.19
61109;BME280;46995;55.740;37.402;2023-05-02T09:48:55;100238.06;;;12.50;37.83
61109;BME280;46995;55.740;37.402;2023-05-02T09:51:22;100182.66;;;12.26;37.97
61109;BME280;46995;55.740;37.402;2023-05-02T09:53:49;100203.47;;;12.51;37.98
61109;BME280;46995;55.740;37.402;2023-05-02T09:56:16;100234.03;;;12.66;38.64
61109;BME280;46995;55.740;37.402;2023-05-02T09:58:43;100218.13;;;12.66;36.82
61109;BME280;46995;55.740;37.402;2023-05-02T10:01:17;100204.22;;;12.53;37.38
61109;BME280;46995;55.740;37.402;2023-05-02T10:03:46;100199.88;;;12.52;36.94
61109;BME280;46995;55.740;37.402;2023-05-02T10:06:14;100214.25;;;12.70;36.94
61109;BME280;46995;55.740;37.402;2023-05-02T10:08:40;100220.13;;;12.74;37.59
61109;BME280;46995;55.740;37.402;2023-05-02T10:11:14;100224.06;;;12.80;37.69
61109;BME280;46995;55.740;37.402;2023-05-02T10:13:40;100216.84;;;12.82;36.94
61109;BME280;46995;55.740;37.402;2023-05-02T10:16:11;100205.63;;;12.78;37.12
61109;BME280;46995;55.740;37.402;2023-05-02T10:21:09;100180.19;;;12.66;35.46
61109;BME280;46995;55.740;37.402;2023-05-02T10:23:40;100204.78;;;12.78;36.32
61109;BME280;46995;55.740;37.402;2023-05-02T10:26:06;100197.63;;;12.68;36.70
61109;BME280;46995;55.740;37.402;2023-05-02T10:28:33;100193.72;;;12.72;36.31
61109;BME280;46995;55.740;37.402;2023-05-02T10:30:59;100205.84;;;12.86;36.89
61109;BME280;46995;55.740;37.402;2023-05-02T10:33:28;100197.09;;;12.95;37.32
61109;BME280;46995;55.740;37.402;2023-05-02T10:35:56;100184.94;;;12.93;38.04
61109;BME280;46995;55.740;37.402;2023-05-02T10:38:22;100196.19;;;13.06;37.41
61109;BME280;46995;55.740;37.402;2023-05-02T10:40:55;100182.09;;;13.05;36.25
61109;BME280;46995;55.740;37.402;2023-05-02T10:43:23;100192.75;;;13.15;35.76
61109;BME280;46995;55.740;37.402;2023-05-02T10:45:51;100187.06;;;12.99;35.98
61109;BME280;46995;55.740;37.402;2023-05-02T10:48:18;100195.00;;;13.20;37.46
61109;BME280;46995;55.740;37.402;2023-05-02T10:50:46;100168.81;;;13.05;36.10
61109;BME280;46995;55.740;37.402;2023-05-02T10:53:25;100181.59;;;13.11;35.28
61109;BME280;46995;55.740;37.402;2023-05-02T10:56:10;100181.69;;;13.10;35.66
61109;BME280;46995;55.740;37.402;2023-05-02T10:58:36;100157.22;;;12.97;36.38
61109;BME280;46995;55.740;37.402;2023-05-02T11:03:57;100173.22;;;13.16;34.95
61109;BME280;46995;55.740;37.402;2023-05-02T11:06:30;100181.09;;;13.27;36.05
61109;BME280;46995;55.740;37.402;2023-05-02T11:11:44;100170.63;;;13.26;36.23
61109;BME280;46995;55.740;37.402;2023-05-02T11:24:49;100158.53;;;13.42;35.08
61109;BME280;46995;55.740;37.402;2023-05-02T11:30:04;100132.78;;;13.24;34.90
61109;BME280;46995;55.740;37.402;2023-05-02T11:35:21;100149.44;;;13.35;34.84
61109;BME280;46995;55.740;37.402;2023-05-02T11:37:56;100145.28;;;13.42;34.11
61109;BME280;46995;55.740;37.402;2023-05-02T11:40:23;100145.69;;;13.47;35.12
61109;BME280;46995;55.740;37.402;2023-05-02T11:42:53;100131.34;;;13.50;34.65
61109;BME280;46995;55.740;37.402;2023-05-02T11:45:19;100131.78;;;13.55;35.21
61109;BME280;46995;55.740;37.402;2023-05-02T11:47:50;100141.88;;;13.71;34.70
61109;BME280;46995;55.740;37.402;2023-05-02T11:50:20;100111.34;;;13.55;35.25
61109;BME280;46995;55.740;37.402;2023-05-02T11:52:47;100081.19;;;13.56;35.31
61109;BME280;46995;55.740;37.402;2023-05-02T11:55:14;100109.16;;;13.80;34.57
61109;BME280;46995;55.740;37.402;2023-05-02T11:57:40;100110.31;;;13.87;35.18
61109;BME280;46995;55.740;37.402;2023-05-02T12:00:07;100087.22;;;13.78;35.40
61109;BME280;46995;55.740;37.402;2023-05-02T12:02:43;100122.59;;;14.07;34.16
61109;BME280;46995;55.740;37.402;2023-05-02T12:05:10;100110.72;;;14.11;35.28
61109;BME280;46995;55.740;37.402;2023-05-02T12:07:38;100116.78;;;14.79;34.92
61109;BME280;46995;55.740;37.402;2023-05-02T12:10:05;100106.16;;;16.67;31.99
61109;BME280;46995;55.740;37.402;2023-05-02T12:12:31;100091.31;;;18.72;29.21
61109;BME280;46995;55.740;37.402;2023-05-02T12:14:57;100099.16;;;20.73;27.08
61109;BME280;46995;55.740;37.402;2023-05-02T12:17:23;100086.66;;;22.11;25.38
61109;BME280;46995;55.740;37.402;2023-05-02T12:19:50;100084.72;;;22.75;24.54
61109;BME280;46995;55.740;37.402;2023-05-02T12:22:16;100087.84;;;22.78;24.27
61109;BME280;46995;55.740;37.402;2023-05-02T12:24:42;100070.00;;;22.01;25.15
61109;BME280;46995;55.740;37.402;2023-05-02T12:27:13;100091.34;;;21.16;25.52
61109;BME280;46995;55.740;37.402;2023-05-02T12:32:06;100072.59;;;19.19;27.08
61109;BME280;46995;55.740;37.402;2023-05-02T12:34:32;100083.94;;;18.82;27.55
61109;BME280;46995;55.740;37.402;2023-05-02T12:36:58;100090.28;;;18.81;30.60
61109;BME280;46995;55.740;37.402;2023-05-02T12:41:59;100064.41;;;17.92;28.61
61109;BME280;46995;55.740;37.402;2023-05-02T12:44:35;100082.59;;;17.72;28.53
61109;BME280;46995;55.740;37.402;2023-05-02T12:47:03;100078.44;;;17.28;28.67
61109;BME280;46995;55.740;37.402;2023-05-02T12:49:30;100055.13;;;16.62;29.69
61109;BME280;46995;55.740;37.402;2023-05-02T12:51:56;100077.31;;;16.45;29.96
61109;BME280;46995;55.740;37.402;2023-05-02T12:54:23;100089.75;;;16.19;30.17
61109;BME280;46995;55.740;37.402;2023-05-02T12:56:50;100076.16;;;15.86;31.11
61109;BME280;46995;55.740;37.402;2023-05-02T12:59:27;100073.81;;;15.83;31.26
61109;BME280;46995;55.740;37.402;2023-05-02T13:01:53;100069.16;;;15.67;31.06
61109;BME280;46995;55.740;37.402;2023-05-02T13:04:18;100063.69;;;15.69;31.46
61109;BME280;46995;55.740;37.402;2023-05-02T13:06:44;100059.03;;;15.71;32.65
61109;BME280;46995;55.740;37.402;2023-05-02T13:09:10;100041.91;;;15.56;31.77
61109;BME280;46995;55.740;37.402;2023-05-02T13:11:36;100070.75;;;15.78;31.83
61109;BME280;46995;55.740;37.402;2023-05-02T13:14:02;100059.19;;;15.87;32.02
61109;BME280;46995;55.740;37.402;2023-05-02T13:16:30;100061.94;;;15.95;32.10
61109;BME280;46995;55.740;37.402;2023-05-02T13:18:57;100056.63;;;15.95;31.36
61109;BME280;46995;55.740;37.402;2023-05-02T13:21:23;100060.63;;;15.99;31.34
61109;BME280;46995;55.740;37.402;2023-05-02T13:23:49;100042.31;;;15.79;31.29
61109;BME280;46995;55.740;37.402;2023-05-02T13:26:16;100043.91;;;15.72;31.43
61109;BME280;46995;55.740;37.402;2023-05-02T13:28:42;100050.06;;;15.72;31.19
61109;BME280;46995;55.740;37.402;2023-05-02T13:31:07;100054.56;;;15.72;31.39
61109;BME280;46995;55.740;37.402;2023-05-02T13:33:33;100014.22;;;15.49;31.42
61109;BME280;46995;55.740;37.402;2023-05-02T13:35:59;99992.06;;;15.31;32.72
61109;BME280;46995;55.740;37.402;2023-05-02T13:38:25;100030.84;;;15.51;32.62